sensor_id;sensor_type;location;lat;lon;timestamp;P1;durP1;ratioP1;P2;durP2;ratioP2
57627;SDS011;43451;49.060;10.616;2023-09-19T00:01:28;4.07;;;2.22;;
57627;SDS011;43451;49.060;10.616;2023-09-19T00:03:55;4.22;;;2.00;;
57627;SDS011;43451;49.060;10.616;2023-09-19T00:06:23;3.88;;;2.08;;
57627;SDS011;43451;49.060;10.616;2023-09-19T00:08:53;4.65;;;2.20;;
57627;SDS011;43451;49.060;10.616;2023-09-19T00:11:20;5.18;;;2.00;;
57627;SDS011;43451;49.060;10.616;2023-09-19T00:13:47;3.92;;;1.95;;
57627;SDS011;43451;49.060;10.616;2023-09-19T00:16:15;4.13;;;2.10;;
57627;SDS011;43451;49.060;10.616;2023-09-19T00:18:40;4.72;;;1.90;;
57627;SDS011;43451;49.060;10.616;2023-09-19T00:21:06;5.03;;;1.98;;
57627;SDS011;43451;49.060;10.616;2023-09-19T00:23:32;2.92;;;1.33;;
57627;SDS011;43451;49.060;10.616;2023-09-19T00:26:01;4.38;;;1.50;;
57627;SDS011;43451;49.060;10.616;2023-09-19T00:28:27;3.55;;;1.10;;
57627;SDS011;43451;49.060;10.616;2023-09-19T00:30:52;1.95;;;1.20;;
57627;SDS011;43451;49.060;10.616;2023-09-19T00:33:20;2.20;;;1.35;;
57627;SDS011;43451;49.060;10.616;2023-09-19T00:35:53;1.38;;;0.90;;
57627;SDS011;43451;49.060;10.616;2023-09-19T00:38:20;1.65;;;0.95;;
57627;SDS011;43451;49.060;10.616;2023-09-19T00:40:49;1.20;;;1.00;;
57627;SDS011;43451;49.060;10.616;2023-09-19T00:43:18;1.85;;;0.90;;
57627;SDS011;43451;49.060;10.616;2023-09-19T00:45:45;1.75;;;1.00;;
57627;SDS011;43451;49.060;10.616;2023-09-19T00:48:13;1.73;;;0.80;;
57627;SDS011;43451;49.060;10.616;2023-09-19T00:50:40;0.80;;;0.80;;
57627;SDS011;43451;49.060;10.616;2023-09-19T00:53:08;1.73;;;0.80;;
57627;SDS011;43451;49.060;10.616;2023-09-19T00:55:38;1.92;;;0.88;;
57627;SDS011;43451;49.060;10.616;2023-09-19T00:58:07;2.03;;;0.80;;
57627;SDS011;43451;49.060;10.616;2023-09-19T01:00:33;1.85;;;1.20;;
57627;SDS011;43451;49.060;10.616;2023-09-19T01:03:02;1.35;;;1.00;;
57627;SDS011;43451;49.060;10.616;2023-09-19T01:05:28;1.25;;;1.10;;
57627;SDS011;43451;49.060;10.616;2023-09-19T01:07:57;1.17;;;0.88;;
57627;SDS011;43451;49.060;10.616;2023-09-19T01:10:22;0.95;;;0.77;;
57627;SDS011;43451;49.060;10.616;2023-09-19T01:18:11;1.50;;;1.00;;
57627;SDS011;43451;49.060;10.616;2023-09-19T01:21:05;2.20;;;0.90;;
57627;SDS011;43451;49.060;10.616;2023-09-19T01:31:32;1.27;;;0.80;;
57627;SDS011;43451;49.060;10.616;2023-09-19T01:34:02;2.38;;;1.13;;
57627;SDS011;43451;49.060;10.616;2023-09-19T01:36:33;1.67;;;1.10;;
57627;SDS011;43451;49.060;10.616;2023-09-19T01:39:01;1.90;;;0.90;;
57627;SDS011;43451;49.060;10.616;2023-09-19T01:41:41;3.67;;;0.80;;
57627;SDS011;43451;49.060;10.616;2023-09-19T01:44:09;3.40;;;1.00;;
57627;SDS011;43451;49.060;10.616;2023-09-19T01:46:43;3.10;;;0.95;;
57627;SDS011;43451;49.060;10.616;2023-09-19T01:54:52;2.92;;;0.90;;
57627;SDS011;43451;49.060;10.616;2023-09-19T01:59:52;1.92;;;1.00;;
57627;SDS011;43451;49.060;10.616;2023-09-19T02:02:22;1.40;;;1.00;;
57627;SDS011;43451;49.060;10.616;2023-09-19T02:04:50;1.75;;;1.08;;
57627;SDS011;43451;49.060;10.616;2023-09-19T02:07:16;2.10;;;1.10;;
57627;SDS011;43451;49.060;10.616;2023-09-19T02:09:42;2.05;;;0.90;;
57627;SDS011;43451;49.060;10.616;2023-09-19T02:12:08;1.70;;;1.00;;
57627;SDS011;43451;49.060;10.616;2023-09-19T02:14:34;2.15;;;1.00;;
57627;SDS011;43451;49.060;10.616;2023-09-19T02:17:03;1.77;;;1.02;;
57627;SDS011;43451;49.060;10.616;2023-09-19T02:19:32;3.25;;;1.20;;
57627;SDS011;43451;49.060;10.616;2023-09-19T02:21:59;1.75;;;0.90;;
57627;SDS011;43451;49.060;10.616;2023-09-19T02:24:25;3.42;;;1.00;;
57627;SDS011;43451;49.060;10.616;2023-09-19T02:26:52;3.47;;;1.00;;
57627;SDS011;43451;49.060;10.616;2023-09-19T02:29:17;1.55;;;1.10;;
57627;SDS011;43451;49.060;10.616;2023-09-19T02:31:43;1.40;;;0.93;;
57627;SDS011;43451;49.060;10.616;2023-09-19T02:36:36;1.98;;;1.00;;
57627;SDS011;43451;49.060;10.616;2023-09-19T02:39:02;2.25;;;1.00;;
57627;SDS011;43451;49.060;10.616;2023-09-19T02:41:29;4.25;;;1.00;;
57627;SDS011;43451;49.060;10.616;2023-09-19T02:43:55;1.90;;;0.90;;
57627;SDS011;43451;49.060;10.616;2023-09-19T02:46:21;1.45;;;0.80;;
57627;SDS011;43451;49.060;10.616;2023-09-19T02:48:47;1.80;;;0.90;;
57627;SDS011;43451;49.060;10.616;2023-09-19T02:51:12;1.40;;;0.90;;
57627;SDS011;43451;49.060;10.616;2023-09-19T02:53:38;1.90;;;1.00;;
57627;SDS011;43451;49.060;10.616;2023-09-19T02:56:04;2.22;;;0.70;;
57627;SDS011;43451;49.060;10.616;2023-09-19T02:58:30;4.53;;;1.10;;
57627;SDS011;43451;49.060;10.616;2023-09-19T03:01:07;3.58;;;1.10;;
57627;SDS011;43451;49.060;10.616;2023-09-19T03:03:38;2.72;;;0.80;;
57627;SDS011;43451;49.060;10.616;2023-09-19T03:06:05;1.95;;;1.00;;
57627;SDS011;43451;49.060;10.616;2023-09-19T03:08:31;1.55;;;0.85;;
57627;SDS011;43451;49.060;10.616;2023-09-19T03:10:57;1.55;;;0.90;;
57627;SDS011;43451;49.060;10.616;2023-09-19T03:13:23;1.73;;;0.70;;
57627;SDS011;43451;49.060;10.616;2023-09-19T03:15:49;2.05;;;1.00;;
57627;SDS011;43451;49.060;10.616;2023-09-19T03:18:15;3.53;;;0.95;;
57627;SDS011;43451;49.060;10.616;2023-09-19T03:20:41;2.40;;;0.90;;
57627;SDS011;43451;49.060;10.616;2023-09-19T03:23:06;1.85;;;0.90;;
57627;SDS011;43451;49.060;10.616;2023-09-19T03:25:36;1.90;;;0.95;;
57627;SDS011;43451;49.060;10.616;2023-09-19T03:28:02;2.10;;;0.85;;
57627;SDS011;43451;49.060;10.616;2023-09-19T03:30:31;2.22;;;0.80;;
57627;SDS011;43451;49.060;10.616;2023-09-19T03:32:58;0.90;;;0.70;;
57627;SDS011;43451;49.060;10.616;2023-09-19T03:35:24;2.42;;;0.77;;
57627;SDS011;43451;49.060;10.616;2023-09-19T03:37:49;4.57;;;0.90;;
57627;SDS011;43451;49.060;10.616;2023-09-19T03:40:17;1.33;;;0.75;;
57627;SDS011;43451;49.060;10.616;2023-09-19T03:42:45;1.40;;;0.70;;
57627;SDS011;43451;49.060;10.616;2023-09-19T03:45:11;2.45;;;0.70;;
57627;SDS011;43451;49.060;10.616;2023-09-19T03:47:37;0.90;;;0.60;;
57627;SDS011;43451;49.060;10.616;2023-09-19T03:50:07;1.88;;;0.70;;
57627;SDS011;43451;49.060;10.616;2023-09-19T03:52:45;2.30;;;0.88;;
57627;SDS011;43451;49.060;10.616;2023-09-19T03:55:14;1.88;;;0.80;;
57627;SDS011;43451;49.060;10.616;2023-09-19T03:57:40;1.30;;;0.73;;
57627;SDS011;43451;49.060;10.616;2023-09-19T04:00:09;3.03;;;0.70;;
57627;SDS011;43451;49.060;10.616;2023-09-19T04:02:37;2.33;;;0.90;;
57627;SDS011;43451;49.060;10.616;2023-09-19T04:05:03;0.93;;;0.65;;
57627;SDS011;43451;49.060;10.616;2023-09-19T04:07:29;0.85;;;0.68;;
57627;SDS011;43451;49.060;10.616;2023-09-19T04:09:55;2.33;;;0.70;;
57627;SDS011;43451;49.060;10.616;2023-09-19T04:12:20;3.50;;;0.80;;
57627;SDS011;43451;49.060;10.616;2023-09-19T04:14:46;1.50;;;0.70;;
57627;SDS011;43451;49.060;10.616;2023-09-19T04:17:11;1.65;;;0.77;;
57627;SDS011;43451;49.060;10.616;2023-09-19T04:19:40;1.65;;;0.80;;
57627;SDS011;43451;49.060;10.616;2023-09-19T04:22:06;2.03;;;0.73;;
57627;SDS011;43451;49.060;10.616;2023-09-19T04:24:32;1.98;;;0.90;;
57627;SDS011;43451;49.060;10.616;2023-09-19T04:26:57;1.40;;;0.90;;
57627;SDS011;43451;49.060;10.616;2023-09-19T04:29:24;3.38;;;0.90;;
57627;SDS011;43451;49.060;10.616;2023-09-19T04:31:51;2.30;;;1.00;;
57627;SDS011;43451;49.060;10.616;2023-09-19T04:34:23;3.05;;;0.90;;
57627;SDS011;43451;49.060;10.616;2023-09-19T04:36:49;1.52;;;0.80;;
57627;SDS011;43451;49.060;10.616;2023-09-19T04:39:17;1.98;;;0.70;;
57627;SDS011;43451;49.060;10.616;2023-09-19T04:41:43;2.50;;;0.80;;
57627;SDS011;43451;49.060;10.616;2023-09-19T04:44:11;1.38;;;0.80;;
57627;SDS011;43451;49.060;10.616;2023-09-19T04:46:39;2.58;;;0.90;;
57627;SDS011;43451;49.060;10.616;2023-09-19T04:49:05;1.80;;;0.80;;
57627;SDS011;43451;49.060;10.616;2023-09-19T04:51:33;2.63;;;0.90;;
57627;SDS011;43451;49.060;10.616;2023-09-19T04:54:01;1.88;;;0.77;;
57627;SDS011;43451;49.060;10.616;2023-09-19T04:56:27;1.40;;;0.93;;
57627;SDS011;43451;49.060;10.616;2023-09-19T04:58:53;1.88;;;0.90;;
57627;SDS011;43451;49.060;10.616;2023-09-19T05:01:19;2.75;;;0.98;;
57627;SDS011;43451;49.060;10.616;2023-09-19T05:03:47;4.13;;;1.13;;
57627;SDS011;43451;49.060;10.616;2023-09-19T05:06:17;2.50;;;1.00;;
57627;SDS011;43451;49.060;10.616;2023-09-19T05:08:43;1.55;;;1.00;;
57627;SDS011;43451;49.060;10.616;2023-09-19T05:11:08;1.70;;;0.90;;
57627;SDS011;43451;49.060;10.616;2023-09-19T05:13:34;1.73;;;1.00;;
57627;SDS011;43451;49.060;10.616;2023-09-19T05:16:00;4.47;;;1.52;;
57627;SDS011;43451;49.060;10.616;2023-09-19T05:18:28;2.65;;;1.02;;
57627;SDS011;43451;49.060;10.616;2023-09-19T05:20:53;2.25;;;0.90;;
57627;SDS011;43451;49.060;10.616;2023-09-19T05:23:19;3.10;;;1.42;;
57627;SDS011;43451;49.060;10.616;2023-09-19T05:25:47;1.00;;;0.80;;
57627;SDS011;43451;49.060;10.616;2023-09-19T05:28:13;2.47;;;1.05;;
57627;SDS011;43451;49.060;10.616;2023-09-19T05:30:40;2.92;;;0.90;;
57627;SDS011;43451;49.060;10.616;2023-09-19T05:35:33;1.50;;;0.85;;
57627;SDS011;43451;49.060;10.616;2023-09-19T05:38:02;2.78;;;1.10;;
57627;SDS011;43451;49.060;10.616;2023-09-19T05:40:27;2.15;;;0.90;;
57627;SDS011;43451;49.060;10.616;2023-09-19T05:42:53;2.70;;;1.00;;
57627;SDS011;43451;49.060;10.616;2023-09-19T05:45:19;2.13;;;0.98;;
57627;SDS011;43451;49.060;10.616;2023-09-19T05:47:50;2.30;;;1.25;;
57627;SDS011;43451;49.060;10.616;2023-09-19T05:50:20;1.50;;;1.05;;
57627;SDS011;43451;49.060;10.616;2023-09-19T05:52:52;1.30;;;0.90;;
57627;SDS011;43451;49.060;10.616;2023-09-19T05:55:19;2.67;;;0.93;;
57627;SDS011;43451;49.060;10.616;2023-09-19T05:57:52;1.20;;;0.80;;
57627;SDS011;43451;49.060;10.616;2023-09-19T06:00:19;1.40;;;1.10;;
57627;SDS011;43451;49.060;10.616;2023-09-19T06:02:54;1.98;;;0.90;;
57627;SDS011;43451;49.060;10.616;2023-09-19T06:05:21;4.07;;;1.08;;
57627;SDS011;43451;49.060;10.616;2023-09-19T06:07:48;3.58;;;1.30;;
57627;SDS011;43451;49.060;10.616;2023-09-19T06:10:13;1.42;;;1.00;;
57627;SDS011;43451;49.060;10.616;2023-09-19T06:12:40;2.03;;;1.13;;
57627;SDS011;43451;49.060;10.616;2023-09-19T06:15:08;1.88;;;1.10;;
57627;SDS011;43451;49.060;10.616;2023-09-19T06:17:37;1.75;;;1.10;;
57627;SDS011;43451;49.060;10.616;2023-09-19T06:20:05;2.38;;;1.10;;
57627;SDS011;43451;49.060;10.616;2023-09-19T06:22:42;5.28;;;1.08;;
57627;SDS011;43451;49.060;10.616;2023-09-19T06:25:11;1.08;;;0.90;;
57627;SDS011;43451;49.060;10.616;2023-09-19T06:27:40;2.35;;;1.00;;
57627;SDS011;43451;49.060;10.616;2023-09-19T06:30:07;1.70;;;1.00;;
57627;SDS011;43451;49.060;10.616;2023-09-19T06:32:35;3.08;;;0.95;;
57627;SDS011;43451;49.060;10.616;2023-09-19T06:35:01;1.27;;;1.02;;
57627;SDS011;43451;49.060;10.616;2023-09-19T06:37:27;1.40;;;1.00;;
57627;SDS011;43451;49.060;10.616;2023-09-19T06:39:53;1.58;;;1.10;;
57627;SDS011;43451;49.060;10.616;2023-09-19T06:42:18;3.13;;;1.00;;
57627;SDS011;43451;49.060;10.616;2023-09-19T06:44:44;1.92;;;1.30;;
57627;SDS011;43451;49.060;10.616;2023-09-19T06:47:13;2.90;;;1.10;;
57627;SDS011;43451;49.060;10.616;2023-09-19T06:49:42;3.22;;;1.08;;
57627;SDS011;43451;49.060;10.616;2023-09-19T06:52:16;2.47;;;1.08;;
57627;SDS011;43451;49.060;10.616;2023-09-19T06:54:44;2.22;;;1.05;;
57627;SDS011;43451;49.060;10.616;2023-09-19T06:57:19;2.22;;;1.13;;
57627;SDS011;43451;49.060;10.616;2023-09-19T06:59:45;2.92;;;1.30;;
57627;SDS011;43451;49.060;10.616;2023-09-19T07:02:11;1.40;;;1.13;;
57627;SDS011;43451;49.060;10.616;2023-09-19T07:04:37;1.50;;;1.20;;
57627;SDS011;43451;49.060;10.616;2023-09-19T07:07:06;3.22;;;1.00;;
57627;SDS011;43451;49.060;10.616;2023-09-19T07:09:34;3.33;;;1.30;;
57627;SDS011;43451;49.060;10.616;2023-09-19T07:11:59;3.10;;;1.35;;
57627;SDS011;43451;49.060;10.616;2023-09-19T07:14:25;2.17;;;1.10;;
57627;SDS011;43451;49.060;10.616;2023-09-19T07:16:57;3.63;;;1.25;;
57627;SDS011;43451;49.060;10.616;2023-09-19T07:19:26;2.00;;;1.30;;
57627;SDS011;43451;49.060;10.616;2023-09-19T07:21:53;2.95;;;1.23;;
57627;SDS011;43451;49.060;10.616;2023-09-19T07:24:22;3.13;;;1.40;;
57627;SDS011;43451;49.060;10.616;2023-09-19T07:26:49;3.70;;;1.20;;
57627;SDS011;43451;49.060;10.616;2023-09-19T07:29:15;3.25;;;1.40;;
57627;SDS011;43451;49.060;10.616;2023-09-19T07:31:41;4.35;;;1.42;;
57627;SDS011;43451;49.060;10.616;2023-09-19T07:34:07;3.05;;;1.67;;
57627;SDS011;43451;49.060;10.616;2023-09-19T07:36:34;3.25;;;1.60;;
57627;SDS011;43451;49.060;10.616;2023-09-19T07:39:02;5.43;;;1.50;;
57627;SDS011;43451;49.060;10.616;2023-09-19T07:41:32;4.38;;;1.80;;
57627;SDS011;43451;49.060;10.616;2023-09-19T07:43:58;3.40;;;1.60;;
57627;SDS011;43451;49.060;10.616;2023-09-19T07:46:23;2.95;;;1.50;;
57627;SDS011;43451;49.060;10.616;2023-09-19T07:48:49;2.00;;;1.45;;
57627;SDS011;43451;49.060;10.616;2023-09-19T07:51:15;3.45;;;1.58;;
57627;SDS011;43451;49.060;10.616;2023-09-19T07:53:41;3.00;;;1.38;;
57627;SDS011;43451;49.060;10.616;2023-09-19T07:56:07;3.30;;;1.38;;
57627;SDS011;43451;49.060;10.616;2023-09-19T07:58:34;5.43;;;1.67;;
57627;SDS011;43451;49.060;10.616;2023-09-19T08:01:05;3.35;;;1.52;;
57627;SDS011;43451;49.060;10.616;2023-09-19T08:03:33;4.25;;;1.80;;
57627;SDS011;43451;49.060;10.616;2023-09-19T08:06:06;3.47;;;1.35;;
57627;SDS011;43451;49.060;10.616;2023-09-19T08:08:33;1.75;;;1.63;;
57627;SDS011;43451;49.060;10.616;2023-09-19T08:11:11;2.55;;;1.77;;
57627;SDS011;43451;49.060;10.616;2023-09-19T08:13:40;2.47;;;1.70;;
57627;SDS011;43451;49.060;10.616;2023-09-19T08:16:12;3.65;;;1.80;;
57627;SDS011;43451;49.060;10.616;2023-09-19T08:21:12;2.83;;;1.92;;
57627;SDS011;43451;49.060;10.616;2023-09-19T08:23:38;2.28;;;1.63;;
57627;SDS011;43451;49.060;10.616;2023-09-19T08:26:04;2.38;;;1.70;;
57627;SDS011;43451;49.060;10.616;2023-09-19T08:28:34;3.72;;;1.77;;
57627;SDS011;43451;49.060;10.616;2023-09-19T08:31:03;3.97;;;1.52;;
57627;SDS011;43451;49.060;10.616;2023-09-19T08:33:38;1.90;;;1.48;;
57627;SDS011;43451;49.060;10.616;2023-09-19T08:36:05;2.13;;;1.63;;
57627;SDS011;43451;49.060;10.616;2023-09-19T08:38:33;2.00;;;1.63;;
57627;SDS011;43451;49.060;10.616;2023-09-19T08:41:05;1.80;;;1.50;;
57627;SDS011;43451;49.060;10.616;2023-09-19T08:43:33;3.72;;;1.80;;
57627;SDS011;43451;49.060;10.616;2023-09-19T08:48:31;1.73;;;1.40;;
57627;SDS011;43451;49.060;10.616;2023-09-19T08:51:02;2.23;;;1.50;;
57627;SDS011;43451;49.060;10.616;2023-09-19T08:53:42;2.55;;;1.40;;
57627;SDS011;43451;49.060;10.616;2023-09-19T08:56:14;4.30;;;1.60;;
57627;SDS011;43451;49.060;10.616;2023-09-19T08:58:50;2.17;;;1.50;;
57627;SDS011;43451;49.060;10.616;2023-09-19T09:01:20;3.42;;;1.30;;
57627;SDS011;43451;49.060;10.616;2023-09-19T09:03:58;2.20;;;1.48;;
57627;SDS011;43451;49.060;10.616;2023-09-19T09:06:24;3.45;;;1.42;;
57627;SDS011;43451;49.060;10.616;2023-09-19T09:09:00;6.88;;;1.80;;
57627;SDS011;43451;49.060;10.616;2023-09-19T09:11:25;2.45;;;1.15;;
57627;SDS011;43451;49.060;10.616;2023-09-19T09:13:53;3.25;;;1.50;;
57627;SDS011;43451;49.060;10.616;2023-09-19T09:16:18;3.53;;;1.30;;
57627;SDS011;43451;49.060;10.616;2023-09-19T09:18:44;2.00;;;1.17;;
57627;SDS011;43451;49.060;10.616;2023-09-19T09:21:11;1.20;;;1.02;;
57627;SDS011;43451;49.060;10.616;2023-09-19T09:26:07;3.08;;;1.10;;
57627;SDS011;43451;49.060;10.616;2023-09-19T09:28:44;1.08;;;0.90;;
57627;SDS011;43451;49.060;10.616;2023-09-19T09:31:23;4.40;;;1.10;;
57627;SDS011;43451;49.060;10.616;2023-09-19T09:33:53;4.55;;;1.08;;
57627;SDS011;43451;49.060;10.616;2023-09-19T09:36:33;1.88;;;1.00;;
57627;SDS011;43451;49.060;10.616;2023-09-19T09:39:03;2.65;;;0.98;;
57627;SDS011;43451;49.060;10.616;2023-09-19T09:41:41;2.83;;;1.00;;
57627;SDS011;43451;49.060;10.616;2023-09-19T09:44:15;2.10;;;1.20;;
57627;SDS011;43451;49.060;10.616;2023-09-19T09:46:45;2.65;;;1.10;;
57627;SDS011;43451;49.060;10.616;2023-09-19T09:49:18;2.30;;;0.80;;
57627;SDS011;43451;49.060;10.616;2023-09-19T09:54:24;1.67;;;1.00;;
57627;SDS011;43451;49.060;10.616;2023-09-19T09:56:57;2.17;;;0.90;;
57627;SDS011;43451;49.060;10.616;2023-09-19T10:02:11;1.53;;;0.90;;
57627;SDS011;43451;49.060;10.616;2023-09-19T10:04:39;3.08;;;0.90;;
57627;SDS011;43451;49.060;10.616;2023-09-19T10:07:29;1.60;;;0.90;;
57627;SDS011;43451;49.060;10.616;2023-09-19T10:10:03;1.20;;;0.80;;
57627;SDS011;43451;49.060;10.616;2023-09-19T10:12:48;1.65;;;0.90;;
57627;SDS011;43451;49.060;10.616;2023-09-19T10:15:17;2.05;;;0.90;;
57627;SDS011;43451;49.060;10.616;2023-09-19T10:17:49;2.35;;;1.10;;
57627;SDS011;43451;49.060;10.616;2023-09-19T10:20:19;3.13;;;1.00;;
57627;SDS011;43451;49.060;10.616;2023-09-19T10:23:07;2.05;;;1.08;;
57627;SDS011;43451;49.060;10.616;2023-09-19T10:25:42;2.50;;;1.00;;
57627;SDS011;43451;49.060;10.616;2023-09-19T10:28:11;3.38;;;0.90;;
57627;SDS011;43451;49.060;10.616;2023-09-19T10:33:09;3.90;;;1.00;;
57627;SDS011;43451;49.060;10.616;2023-09-19T10:35:38;1.38;;;0.80;;
57627;SDS011;43451;49.060;10.616;2023-09-19T10:38:12;2.72;;;1.00;;
57627;SDS011;43451;49.060;10.616;2023-09-19T10:40:48;1.92;;;0.80;;
57627;SDS011;43451;49.060;10.616;2023-09-19T10:43:16;1.88;;;0.90;;
57627;SDS011;43451;49.060;10.616;2023-09-19T10:45:44;2.55;;;1.13;;
57627;SDS011;43451;49.060;10.616;2023-09-19T10:48:11;1.95;;;1.02;;
57627;SDS011;43451;49.060;10.616;2023-09-19T10:50:44;1.95;;;0.95;;
57627;SDS011;43451;49.060;10.616;2023-09-19T10:53:14;1.63;;;0.95;;
57627;SDS011;43451;49.060;10.616;2023-09-19T10:55:42;2.15;;;0.88;;
57627;SDS011;43451;49.060;10.616;2023-09-19T10:58:24;2.17;;;1.08;;
57627;SDS011;43451;49.060;10.616;2023-09-19T11:00:57;4.25;;;1.00;;
57627;SDS011;43451;49.060;10.616;2023-09-19T11:03:40;2.05;;;1.05;;
57627;SDS011;43451;49.060;10.616;2023-09-19T11:06:16;2.45;;;1.00;;
57627;SDS011;43451;49.060;10.616;2023-09-19T11:22:23;3.35;;;1.00;;
57627;SDS011;43451;49.060;10.616;2023-09-19T11:24:51;2.50;;;1.10;;
57627;SDS011;43451;49.060;10.616;2023-09-19T11:27:17;2.20;;;1.10;;
57627;SDS011;43451;49.060;10.616;2023-09-19T11:29:43;1.45;;;1.00;;
57627;SDS011;43451;49.060;10.616;2023-09-19T11:32:09;2.63;;;1.00;;
57627;SDS011;43451;49.060;10.616;2023-09-19T11:34:44;1.92;;;1.00;;
57627;SDS011;43451;49.060;10.616;2023-09-19T11:39:39;2.33;;;0.90;;
57627;SDS011;43451;49.060;10.616;2023-09-19T11:48:08;2.20;;;1.20;;
57627;SDS011;43451;49.060;10.616;2023-09-19T11:50:38;2.05;;;1.10;;
57627;SDS011;43451;49.060;10.616;2023-09-19T11:53:04;2.58;;;1.02;;
57627;SDS011;43451;49.060;10.616;2023-09-19T11:55:31;1.55;;;1.08;;
57627;SDS011;43451;49.060;10.616;2023-09-19T11:57:57;4.13;;;1.20;;
57627;SDS011;43451;49.060;10.616;2023-09-19T12:00:24;2.78;;;0.98;;
57627;SDS011;43451;49.060;10.616;2023-09-19T12:02:52;2.30;;;1.08;;
57627;SDS011;43451;49.060;10.616;2023-09-19T12:05:30;2.80;;;1.20;;
57627;SDS011;43451;49.060;10.616;2023-09-19T12:07:58;1.60;;;1.10;;
57627;SDS011;43451;49.060;10.616;2023-09-19T12:10:24;1.90;;;1.30;;
57627;SDS011;43451;49.060;10.616;2023-09-19T12:12:49;2.30;;;0.90;;
57627;SDS011;43451;49.060;10.616;2023-09-19T12:15:27;2.38;;;1.20;;
57627;SDS011;43451;49.060;10.616;2023-09-19T12:17:59;4.38;;;1.27;;
57627;SDS011;43451;49.060;10.616;2023-09-19T12:20:25;2.10;;;0.93;;
57627;SDS011;43451;49.060;10.616;2023-09-19T12:23:09;3.60;;;1.15;;
57627;SDS011;43451;49.060;10.616;2023-09-19T12:25:44;3.90;;;1.20;;
57627;SDS011;43451;49.060;10.616;2023-09-19T12:28:14;3.22;;;1.20;;
57627;SDS011;43451;49.060;10.616;2023-09-19T12:30:42;2.13;;;1.10;;
57627;SDS011;43451;49.060;10.616;2023-09-19T12:33:20;2.17;;;1.20;;
57627;SDS011;43451;49.060;10.616;2023-09-19T12:35:46;1.77;;;1.20;;
57627;SDS011;43451;49.060;10.616;2023-09-19T12:38:25;1.90;;;1.00;;
57627;SDS011;43451;49.060;10.616;2023-09-19T12:40:55;1.60;;;1.00;;
57627;SDS011;43451;49.060;10.616;2023-09-19T12:43:23;1.92;;;0.98;;
57627;SDS011;43451;49.060;10.616;2023-09-19T12:45:49;2.58;;;1.05;;
57627;SDS011;43451;49.060;10.616;2023-09-19T12:48:24;3.72;;;1.08;;
57627;SDS011;43451;49.060;10.616;2023-09-19T12:51:02;1.95;;;0.98;;
57627;SDS011;43451;49.060;10.616;2023-09-19T12:53:31;1.35;;;1.05;;
57627;SDS011;43451;49.060;10.616;2023-09-19T12:55:59;1.83;;;1.00;;
57627;SDS011;43451;49.060;10.616;2023-09-19T12:58:25;1.30;;;1.00;;
57627;SDS011;43451;49.060;10.616;2023-09-19T13:00:51;3.42;;;1.10;;
57627;SDS011;43451;49.060;10.616;2023-09-19T13:06:00;2.28;;;1.30;;
57627;SDS011;43451;49.060;10.616;2023-09-19T13:08:35;1.25;;;0.85;;
57627;SDS011;43451;49.060;10.616;2023-09-19T13:11:05;2.20;;;1.00;;
57627;SDS011;43451;49.060;10.616;2023-09-19T13:13:32;5.80;;;1.20;;
57627;SDS011;43451;49.060;10.616;2023-09-19T13:15:58;3.00;;;1.00;;
57627;SDS011;43451;49.060;10.616;2023-09-19T13:18:26;2.47;;;1.00;;
57627;SDS011;43451;49.060;10.616;2023-09-19T13:21:08;5.82;;;1.67;;
57627;SDS011;43451;49.060;10.616;2023-09-19T13:23:55;1.95;;;1.23;;
57627;SDS011;43451;49.060;10.616;2023-09-19T13:26:26;2.65;;;1.02;;
57627;SDS011;43451;49.060;10.616;2023-09-19T13:28:53;3.55;;;1.05;;
57627;SDS011;43451;49.060;10.616;2023-09-19T13:31:21;2.33;;;1.05;;
57627;SDS011;43451;49.060;10.616;2023-09-19T13:33:48;1.83;;;1.10;;
57627;SDS011;43451;49.060;10.616;2023-09-19T13:36:15;3.13;;;1.08;;
57627;SDS011;43451;49.060;10.616;2023-09-19T13:38:41;2.60;;;1.15;;
57627;SDS011;43451;49.060;10.616;2023-09-19T13:41:10;1.95;;;1.30;;
57627;SDS011;43451;49.060;10.616;2023-09-19T13:43:39;2.60;;;1.00;;
57627;SDS011;43451;49.060;10.616;2023-09-19T13:46:05;2.05;;;1.10;;
57627;SDS011;43451;49.060;10.616;2023-09-19T13:48:37;1.30;;;0.90;;
57627;SDS011;43451;49.060;10.616;2023-09-19T13:51:03;1.42;;;0.85;;
57627;SDS011;43451;49.060;10.616;2023-09-19T13:53:29;1.10;;;0.98;;
57627;SDS011;43451;49.060;10.616;2023-09-19T13:55:54;3.85;;;1.10;;
57627;SDS011;43451;49.060;10.616;2023-09-19T13:58:20;2.10;;;1.02;;
57627;SDS011;43451;49.060;10.616;2023-09-19T14:00:47;1.63;;;1.00;;
57627;SDS011;43451;49.060;10.616;2023-09-19T14:03:13;3.97;;;0.88;;
57627;SDS011;43451;49.060;10.616;2023-09-19T14:05:39;5.75;;;1.10;;
57627;SDS011;43451;49.060;10.616;2023-09-19T14:08:04;1.63;;;0.90;;
57627;SDS011;43451;49.060;10.616;2023-09-19T14:10:30;2.08;;;1.00;;
57627;SDS011;43451;49.060;10.616;2023-09-19T14:12:56;3.35;;;1.08;;
57627;SDS011;43451;49.060;10.616;2023-09-19T14:15:25;1.85;;;1.00;;
57627;SDS011;43451;49.060;10.616;2023-09-19T14:17:58;2.88;;;1.17;;
57627;SDS011;43451;49.060;10.616;2023-09-19T14:20:25;3.45;;;0.95;;
57627;SDS011;43451;49.060;10.616;2023-09-19T14:22:55;2.08;;;1.05;;
57627;SDS011;43451;49.060;10.616;2023-09-19T14:25:23;2.15;;;0.93;;
57627;SDS011;43451;49.060;10.616;2023-09-19T14:27:49;3.05;;;0.90;;
57627;SDS011;43451;49.060;10.616;2023-09-19T14:30:15;1.52;;;0.80;;
57627;SDS011;43451;49.060;10.616;2023-09-19T14:32:40;3.47;;;1.20;;
57627;SDS011;43451;49.060;10.616;2023-09-19T14:35:09;3.45;;;0.82;;
57627;SDS011;43451;49.060;10.616;2023-09-19T14:37:35;2.45;;;1.20;;
57627;SDS011;43451;49.060;10.616;2023-09-19T14:40:03;3.55;;;0.95;;
57627;SDS011;43451;49.060;10.616;2023-09-19T14:42:34;4.10;;;1.00;;
57627;SDS011;43451;49.060;10.616;2023-09-19T14:45:02;2.00;;;0.90;;
57627;SDS011;43451;49.060;10.616;2023-09-19T14:47:29;3.45;;;1.05;;
57627;SDS011;43451;49.060;10.616;2023-09-19T14:49:57;1.92;;;0.80;;
57627;SDS011;43451;49.060;10.616;2023-09-19T14:52:23;3.30;;;1.10;;
57627;SDS011;43451;49.060;10.616;2023-09-19T14:54:52;1.90;;;1.00;;
57627;SDS011;43451;49.060;10.616;2023-09-19T14:57:18;2.22;;;0.90;;
57627;SDS011;43451;49.060;10.616;2023-09-19T14:59:44;2.88;;;0.90;;
57627;SDS011;43451;49.060;10.616;2023-09-19T15:02:09;2.20;;;1.00;;
57627;SDS011;43451;49.060;10.616;2023-09-19T15:04:35;1.50;;;0.90;;
57627;SDS011;43451;49.060;10.616;2023-09-19T15:07:00;1.35;;;1.05;;
57627;SDS011;43451;49.060;10.616;2023-09-19T15:09:26;3.33;;;0.90;;
57627;SDS011;43451;49.060;10.616;2023-09-19T15:11:54;1.90;;;1.00;;
57627;SDS011;43451;49.060;10.616;2023-09-19T15:14:24;3.78;;;1.20;;
57627;SDS011;43451;49.060;10.616;2023-09-19T15:16:54;1.92;;;1.00;;
57627;SDS011;43451;49.060;10.616;2023-09-19T15:19:20;1.10;;;0.77;;
57627;SDS011;43451;49.060;10.616;2023-09-19T15:21:47;4.53;;;1.13;;
57627;SDS011;43451;49.060;10.616;2023-09-19T15:24:13;2.38;;;1.00;;
57627;SDS011;43451;49.060;10.616;2023-09-19T15:26:40;1.67;;;0.82;;
57627;SDS011;43451;49.060;10.616;2023-09-19T15:29:08;3.72;;;1.20;;
57627;SDS011;43451;49.060;10.616;2023-09-19T15:31:35;2.17;;;0.90;;
57627;SDS011;43451;49.060;10.616;2023-09-19T15:34:04;1.73;;;0.90;;
57627;SDS011;43451;49.060;10.616;2023-09-19T15:36:30;3.25;;;1.00;;
57627;SDS011;43451;49.060;10.616;2023-09-19T15:43:57;3.83;;;1.00;;
57627;SDS011;43451;49.060;10.616;2023-09-19T15:46:26;1.75;;;0.82;;
57627;SDS011;43451;49.060;10.616;2023-09-19T15:48:56;3.58;;;1.00;;
57627;SDS011;43451;49.060;10.616;2023-09-19T15:51:22;1.40;;;0.90;;
57627;SDS011;43451;49.060;10.616;2023-09-19T15:53:48;2.65;;;1.10;;